createdAt,value
2023-02-01T00:00:27.946Z,100415.19
2023-02-01T00:02:54.536Z,100416.91
2023-02-01T00:05:21.200Z,100407.88
2023-02-01T00:07:50.128Z,100407.03
2023-02-01T00:10:17.180Z,100408.28
2023-02-01T00:12:43.804Z,100409.06
2023-02-01T00:15:10.620Z,100420.97
2023-02-01T00:17:37.245Z,100407.38
2023-02-01T00:20:04.355Z,100410.31
2023-02-01T00:22:30.941Z,100411.31
2023-02-01T00:24:57.505Z,100412.06
2023-02-01T00:27:24.041Z,100402.87
2023-02-01T00:29:50.623Z,100399.78
2023-02-01T00:32:17.291Z,100400.00
2023-02-01T00:34:43.895Z,100392.28
2023-02-01T00:37:10.451Z,100396.69
2023-02-01T00:39:37.023Z,100402.75
2023-02-01T00:42:03.749Z,100407.00
2023-02-01T00:44:34.219Z,100413.09
2023-02-01T00:47:01.265Z,100406.09
2023-02-01T00:49:28.612Z,100403.37
2023-02-01T00:51:55.830Z,100393.56
2023-02-01T00:54:22.480Z,100403.56
2023-02-01T00:56:49.104Z,100392.47
2023-02-01T00:59:15.823Z,100390.06
2023-02-01T01:01:42.480Z,100397.31
2023-02-01T01:04:09.413Z,100385.63
2023-02-01T01:06:36.101Z,100380.44
2023-02-01T01:09:07.719Z,100388.72
2023-02-01T01:11:37.417Z,100389.87
2023-02-01T01:14:06.885Z,100395.19
2023-02-01T01:16:34.303Z,100388.16
2023-02-01T01:19:01.606Z,100380.44
2023-02-01T01:21:28.476Z,100381.88
2023-02-01T01:23:55.525Z,100365.03
2023-02-01T01:26:24.865Z,100350.88
2023-02-01T01:28:52.575Z,100337.59
2023-02-01T01:31:21.182Z,100346.78
2023-02-01T01:33:52.875Z,100345.28
2023-02-01T01:36:20.308Z,100355.25
2023-02-01T01:38:47.068Z,100347.56
2023-02-01T01:41:19.580Z,100340.81
2023-02-01T01:43:58.057Z,100344.66
2023-02-01T01:46:41.930Z,100341.53
2023-02-01T01:49:13.618Z,100336.25
2023-02-01T01:51:45.498Z,100331.25
2023-02-01T01:54:22.590Z,100339.88
2023-02-01T01:56:53.536Z,100332.97
2023-02-01T01:59:23.066Z,100336.06
2023-02-01T02:01:49.789Z,100339.63
2023-02-01T02:04:16.688Z,100350.56
2023-02-01T02:06:51.042Z,100349.97
2023-02-01T02:09:17.853Z,100342.78
2023-02-01T02:11:44.464Z,100347.41
2023-02-01T02:14:13.783Z,100348.84
2023-02-01T02:16:56.854Z,100344.66
2023-02-01T02:19:45.865Z,100338.97
2023-02-01T02:22:30.659Z,100339.50
2023-02-01T02:25:21.547Z,100341.31
2023-02-01T02:27:51.073Z,100332.69
2023-02-01T02:30:45.279Z,100336.84
2023-02-01T02:33:30.190Z,100340.00
2023-02-01T02:35:56.692Z,100336.63
2023-02-01T02:38:32.351Z,100324.75
2023-02-01T02:41:35.104Z,100328.34
2023-02-01T02:44:28.431Z,100330.84
2023-02-01T02:47:19.751Z,100323.28
2023-02-01T02:50:23.128Z,100324.53
2023-02-01T02:53:16.886Z,100316.91
2023-02-01T02:55:44.662Z,100329.03
2023-02-01T02:58:32.294Z,100323.91
2023-02-01T03:01:17.805Z,100317.41
2023-02-01T03:04:04.169Z,100315.09
2023-02-01T03:06:33.694Z,100320.97
2023-02-01T03:09:05.710Z,100314.00
2023-02-01T03:11:52.105Z,100309.34
2023-02-01T03:14:22.116Z,100308.13
2023-02-01T03:16:53.114Z,100301.72
2023-02-01T03:19:29.028Z,100312.28
2023-02-01T03:22:18.771Z,100302.06
2023-02-01T03:24:50.749Z,100302.38
2023-02-01T03:27:44.865Z,100298.44
2023-02-01T03:30:27.428Z,100297.56
2023-02-01T03:33:01.189Z,100301.47
2023-02-01T03:35:55.346Z,100308.88
2023-02-01T03:38:24.848Z,100314.16
2023-02-01T03:41:01.360Z,100314.53
2023-02-01T03:43:31.682Z,100313.47
2023-02-01T03:46:05.492Z,100313.66
2023-02-01T03:48:32.997Z,100316.28
2023-02-01T03:51:04.549Z,100318.69
2023-02-01T03:53:32.848Z,100314.53
2023-02-01T03:55:59.536Z,100305.66
2023-02-01T03:58:26.118Z,100315.25
2023-02-01T04:00:58.892Z,100319.19
2023-02-01T04:03:26.754Z,100324.16
2023-02-01T04:05:56.566Z,100325.50
2023-02-01T04:08:23.999Z,100320.91
2023-02-01T04:10:50.894Z,100310.97
2023-02-01T04:13:17.597Z,100320.75
2023-02-01T04:15:44.270Z,100315.53
2023-02-01T04:18:10.848Z,100323.62
2023-02-01T04:20:37.426Z,100318.91
2023-02-01T04:23:04.138Z,100316.22
2023-02-01T04:25:31.287Z,100327.38
2023-02-01T04:27:57.848Z,100309.44
2023-02-01T04:30:25.054Z,100318.06
2023-02-01T04:32:51.903Z,100316.94
2023-02-01T04:35:18.846Z,100322.03
2023-02-01T04:37:45.511Z,100314.25
2023-02-01T04:40:12.715Z,100309.88
2023-02-01T04:42:39.253Z,100309.44
2023-02-01T04:45:06.590Z,100316.84
2023-02-01T04:47:33.193Z,100316.44
2023-02-01T04:49:59.847Z,100330.56
2023-02-01T04:52:26.383Z,100315.84
2023-02-01T04:54:55.583Z,100330.03
2023-02-01T04:57:22.812Z,100318.31
2023-02-01T04:59:49.371Z,100315.06
2023-02-01T05:02:15.934Z,100307.94
2023-02-01T05:04:42.539Z,100317.31
2023-02-01T05:07:09.183Z,100317.03
2023-02-01T05:09:35.721Z,100312.22
2023-02-01T05:12:21.395Z,100330.66
2023-02-01T05:14:48.806Z,100332.34
2023-02-01T05:17:15.466Z,100321.00
2023-02-01T05:19:42.061Z,100328.31
2023-02-01T05:22:08.640Z,100326.47
2023-02-01T05:24:35.331Z,100336.19
2023-02-01T05:27:01.922Z,100325.13
2023-02-01T05:29:28.792Z,100321.94
2023-02-01T05:31:55.473Z,100318.13
2023-02-01T05:34:22.238Z,100304.84
2023-02-01T05:36:48.887Z,100315.63
2023-02-01T05:39:15.528Z,100303.06
2023-02-01T05:41:42.225Z,100297.41
2023-02-01T05:44:08.892Z,100307.22
2023-02-01T05:46:36.714Z,100304.16
2023-02-01T05:49:03.913Z,100300.28
2023-02-01T05:51:30.694Z,100306.06
2023-02-01T05:53:57.299Z,100320.47
2023-02-01T05:56:23.871Z,100318.59
2023-02-01T05:58:50.936Z,100326.44
2023-02-01T06:01:17.552Z,100314.09
2023-02-01T06:03:44.158Z,100327.41
2023-02-01T06:06:10.830Z,100325.13
2023-02-01T06:08:37.434Z,100324.31
2023-02-01T06:11:06.067Z,100328.09
2023-02-01T06:13:34.641Z,100331.53
2023-02-01T06:16:05.827Z,100330.22
2023-02-01T06:18:32.700Z,100340.81
2023-02-01T06:21:03.834Z,100341.28
2023-02-01T06:23:31.656Z,100336.06
2023-02-01T06:26:08.564Z,100337.62
2023-02-01T06:28:35.524Z,100360.00
2023-02-01T06:31:07.831Z,100351.16
2023-02-01T06:33:35.202Z,100347.88
2023-02-01T06:36:04.542Z,100343.53
2023-02-01T06:38:32.168Z,100356.22
2023-02-01T06:40:59.111Z,100363.47
2023-02-01T06:43:27.686Z,100364.28
2023-02-01T06:45:55.112Z,100363.78
2023-02-01T06:48:21.752Z,100364.94
2023-02-01T06:50:48.342Z,100358.00
2023-02-01T06:53:14.959Z,100358.97
2023-02-01T06:55:41.594Z,100358.78
2023-02-01T06:58:08.201Z,100354.28
2023-02-01T07:00:34.905Z,100359.63
2023-02-01T07:03:02.163Z,100369.28
2023-02-01T07:05:28.837Z,100370.25
2023-02-01T07:07:55.477Z,100377.47
2023-02-01T07:10:22.353Z,100371.53
2023-02-01T07:12:49.121Z,100377.47
2023-02-01T07:15:15.689Z,100362.22
2023-02-01T07:17:42.321Z,100367.84
2023-02-01T07:20:09.652Z,100360.75
2023-02-01T07:22:36.285Z,100359.81
2023-02-01T07:25:05.734Z,100371.84
2023-02-01T07:27:35.696Z,100369.75
2023-02-01T07:30:03.278Z,100370.38
2023-02-01T07:32:30.923Z,100376.84
2023-02-01T07:34:59.071Z,100388.56
2023-02-01T07:37:26.235Z,100392.09
2023-02-01T07:39:53.009Z,100402.25
2023-02-01T07:42:20.024Z,100392.53
2023-02-01T07:44:46.919Z,100397.81
2023-02-01T07:47:13.745Z,100397.59
2023-02-01T07:49:40.339Z,100395.00
2023-02-01T07:52:06.963Z,100396.41
2023-02-01T07:54:33.628Z,100402.47
2023-02-01T07:57:00.210Z,100396.47
2023-02-01T07:59:26.804Z,100405.75
2023-02-01T08:01:53.400Z,100398.53
2023-02-01T08:04:20.101Z,100401.91
2023-02-01T08:06:46.703Z,100389.63
2023-02-01T08:09:13.559Z,100405.16
2023-02-01T08:11:40.225Z,100395.78
2023-02-01T08:14:07.682Z,100403.63
2023-02-01T08:16:36.314Z,100405.41
2023-02-01T08:19:02.986Z,100399.81
2023-02-01T08:21:37.624Z,100404.62
2023-02-01T08:24:06.737Z,100387.72
2023-02-01T08:26:33.729Z,100407.44
2023-02-01T08:29:04.312Z,100400.03
2023-02-01T08:31:31.321Z,100406.47
2023-02-01T08:34:00.817Z,100402.94
2023-02-01T08:36:30.172Z,100428.03
2023-02-01T08:38:57.679Z,100418.03
2023-02-01T08:41:26.930Z,100428.13
2023-02-01T08:43:55.147Z,100435.78
2023-02-01T08:46:22.478Z,100443.91
2023-02-01T08:48:49.809Z,100444.13
2023-02-01T08:51:19.919Z,100429.25
2023-02-01T08:53:47.079Z,100445.25
2023-02-01T08:56:16.367Z,100434.13
2023-02-01T08:58:43.187Z,100436.16
2023-02-01T09:01:15.373Z,100444.00
2023-02-01T09:03:42.344Z,100443.47
2023-02-01T09:06:12.256Z,100445.72
2023-02-01T09:08:40.314Z,100447.31
2023-02-01T09:11:09.737Z,100444.03
2023-02-01T09:13:36.638Z,100445.31
2023-02-01T09:16:04.371Z,100443.84
2023-02-01T09:18:31.087Z,100442.41
2023-02-01T09:20:57.768Z,100438.72
2023-02-01T09:23:24.874Z,100419.81
2023-02-01T09:25:52.493Z,100419.56
2023-02-01T09:28:20.316Z,100413.44
2023-02-01T09:30:47.024Z,100395.91
2023-02-01T09:33:13.753Z,100404.59
2023-02-01T09:35:40.460Z,100418.94
2023-02-01T09:38:07.161Z,100404.69
2023-02-01T09:40:36.459Z,100385.69
2023-02-01T09:43:41.457Z,100405.88
2023-02-01T09:46:22.450Z,100407.75
2023-02-01T09:48:53.705Z,100417.97
2023-02-01T09:51:30.884Z,100416.19
2023-02-01T09:54:18.224Z,100427.00
2023-02-01T09:56:57.792Z,100417.31
2023-02-01T09:59:42.308Z,100411.75
2023-02-01T10:02:22.611Z,100418.00
2023-02-01T10:04:49.933Z,100400.56
2023-02-01T10:07:42.587Z,100410.31
2023-02-01T10:10:27.222Z,100410.13
2023-02-01T10:13:03.101Z,100401.25
2023-02-01T10:15:41.047Z,100393.91
2023-02-01T10:18:07.620Z,100391.69
2023-02-01T10:20:54.440Z,100387.13
2023-02-01T10:23:39.538Z,100381.78
2023-02-01T10:26:27.085Z,100374.53
2023-02-01T10:28:58.600Z,100372.13
2023-02-01T10:31:29.615Z,100355.53
2023-02-01T10:34:01.533Z,100338.19
2023-02-01T10:36:42.214Z,100336.09
2023-02-01T10:39:15.332Z,100340.34
2023-02-01T10:41:44.257Z,100342.44
2023-02-01T10:44:23.499Z,100340.31
2023-02-01T10:46:51.363Z,100340.59
2023-02-01T10:49:41.913Z,100339.97
2023-02-01T10:52:18.364Z,100341.87
2023-02-01T10:54:45.023Z,100345.09
2023-02-01T10:57:22.567Z,100346.00
2023-02-01T10:59:49.253Z,100356.50
2023-02-01T11:02:33.142Z,100345.84
2023-02-01T11:05:05.683Z,100347.56
2023-02-01T11:07:33.615Z,100336.50
2023-02-01T11:10:00.334Z,100336.56
2023-02-01T11:12:36.385Z,100333.13
2023-02-01T11:15:24.139Z,100321.53
2023-02-01T11:17:52.937Z,100322.25
2023-02-01T11:20:39.836Z,100322.47
2023-02-01T11:23:14.231Z,100312.28
2023-02-01T11:25:50.193Z,100312.56
2023-02-01T11:28:17.865Z,100299.06
2023-02-01T11:30:48.307Z,100302.19
2023-02-01T11:33:16.960Z,100291.56
2023-02-01T11:35:44.876Z,100292.78
2023-02-01T11:38:28.220Z,100285.13
2023-02-01T11:40:54.901Z,100284.53
2023-02-01T11:43:29.761Z,100286.84
2023-02-01T11:46:01.876Z,100273.28
2023-02-01T11:48:32.370Z,100276.69
2023-02-01T11:50:58.790Z,100287.44
2023-02-01T11:53:50.039Z,100278.06
2023-02-01T11:56:28.512Z,100272.41
2023-02-01T11:59:13.841Z,100265.75
2023-02-01T12:02:05.248Z,100260.94
2023-02-01T12:04:45.861Z,100254.22
2023-02-01T12:07:24.591Z,100252.41
2023-02-01T12:10:26.681Z,100242.22
2023-02-01T12:13:10.474Z,100241.81
2023-02-01T12:15:48.536Z,100242.78
2023-02-01T12:18:54.849Z,100239.59
2023-02-01T12:21:44.508Z,100237.59
2023-02-01T12:24:25.624Z,100241.06
2023-02-01T12:27:27.739Z,100243.41
2023-02-01T12:30:09.696Z,100252.25
2023-02-01T12:32:54.762Z,100265.28
2023-02-01T12:35:45.711Z,100262.09
2023-02-01T12:38:33.827Z,100262.53
2023-02-01T12:41:09.553Z,100271.13
2023-02-01T12:43:50.400Z,100276.97
2023-02-01T12:46:34.623Z,100288.94
2023-02-01T12:49:28.684Z,100291.87
2023-02-01T12:52:20.204Z,100293.31
2023-02-01T12:54:54.201Z,100303.78
2023-02-01T12:57:41.029Z,100303.75
2023-02-01T13:00:23.231Z,100294.09
2023-02-01T13:02:59.066Z,100275.94
2023-02-01T13:05:34.512Z,100279.97
2023-02-01T13:08:03.708Z,100265.00
2023-02-01T13:10:48.143Z,100275.31
2023-02-01T13:13:46.117Z,100258.56
2023-02-01T13:16:35.488Z,100257.34
2023-02-01T13:19:30.201Z,100237.75
2023-02-01T13:22:03.039Z,100237.84
2023-02-01T13:24:46.249Z,100232.47
2023-02-01T13:27:17.842Z,100216.19
2023-02-01T13:29:55.321Z,100206.31
2023-02-01T13:33:51.064Z,100208.44
2023-02-01T13:36:19.613Z,100193.84
2023-02-01T13:39:11.084Z,100197.22
2023-02-01T13:41:52.951Z,100189.69
2023-02-01T13:44:30.341Z,100196.84
2023-02-01T13:47:00.713Z,100198.62
2023-02-01T13:49:38.323Z,100216.66
2023-02-01T13:52:05.667Z,100221.66
2023-02-01T13:54:38.293Z,100222.44
2023-02-01T13:57:15.847Z,100230.37
2023-02-01T13:59:42.380Z,100228.75
2023-02-01T14:02:43.545Z,100229.91
2023-02-01T14:05:12.929Z,100229.59
2023-02-01T14:08:08.174Z,100232.34
2023-02-01T14:10:57.543Z,100217.22
2023-02-01T14:13:42.663Z,100221.72
2023-02-01T14:16:15.123Z,100229.63
2023-02-01T14:18:46.547Z,100220.37
2023-02-01T14:21:24.133Z,100232.88
2023-02-01T14:23:53.775Z,100222.84
2023-02-01T14:26:22.254Z,100228.97
2023-02-01T14:28:53.937Z,100232.66
2023-02-01T14:31:35.011Z,100226.34
2023-02-01T14:34:11.247Z,100232.72
2023-02-01T14:37:06.855Z,100231.50
2023-02-01T14:39:47.748Z,100217.47
2023-02-01T14:42:40.656Z,100232.50
2023-02-01T14:45:27.784Z,100249.41
2023-02-01T14:48:07.030Z,100247.34
2023-02-01T14:50:33.845Z,100251.69
2023-02-01T14:53:06.569Z,100257.59
2023-02-01T14:55:56.744Z,100258.19
2023-02-01T14:58:40.843Z,100261.97
2023-02-01T15:01:32.631Z,100261.13
2023-02-01T15:04:06.798Z,100252.62
2023-02-01T15:06:45.439Z,100246.50
2023-02-01T15:09:12.035Z,100249.88
2023-02-01T15:11:58.583Z,100249.09
2023-02-01T15:14:26.799Z,100244.56
2023-02-01T15:16:56.419Z,100252.16
2023-02-01T15:19:24.987Z,100250.41
2023-02-01T15:21:57.428Z,100246.72
2023-02-01T15:24:32.438Z,100249.47
2023-02-01T15:27:05.675Z,100244.13
2023-02-01T15:29:35.592Z,100243.53
2023-02-01T15:32:02.427Z,100245.19
2023-02-01T15:34:51.930Z,100252.62
2023-02-01T15:37:20.710Z,100240.87
2023-02-01T15:40:18.870Z,100243.63
2023-02-01T15:43:00.404Z,100242.47
2023-02-01T15:45:30.149Z,100246.12
2023-02-01T15:47:59.048Z,100252.69
2023-02-01T15:50:26.439Z,100246.41
2023-02-01T15:52:56.550Z,100252.19
2023-02-01T15:55:35.342Z,100258.56
2023-02-01T15:58:07.255Z,100255.72
2023-02-01T16:00:44.438Z,100254.69
2023-02-01T16:03:33.690Z,100264.59
2023-02-01T16:06:02.661Z,100265.34
2023-02-01T16:08:30.868Z,100274.75
2023-02-01T16:11:15.764Z,100273.84
2023-02-01T16:13:42.315Z,100278.34
2023-02-01T16:16:14.813Z,100283.66
2023-02-01T16:18:42.373Z,100306.19
2023-02-01T16:21:09.610Z,100294.47
2023-02-01T16:23:37.179Z,100306.84
2023-02-01T16:26:05.269Z,100315.69
2023-02-01T16:28:31.842Z,100311.63
2023-02-01T16:30:58.804Z,100310.19
2023-02-01T16:33:26.066Z,100314.06
2023-02-01T16:35:53.742Z,100299.88
2023-02-01T16:38:23.382Z,100276.72
2023-02-01T16:40:50.847Z,100274.47
2023-02-01T16:43:20.565Z,100277.06
2023-02-01T16:45:49.492Z,100276.06
2023-02-01T16:48:21.615Z,100267.53
2023-02-01T16:50:52.381Z,100275.09
2023-02-01T16:53:19.842Z,100275.59
2023-02-01T16:55:48.910Z,100274.50
2023-02-01T16:58:15.592Z,100264.69
2023-02-01T17:00:42.705Z,100269.19
2023-02-01T17:03:12.168Z,100271.28
2023-02-01T17:05:38.783Z,100270.63
2023-02-01T17:08:07.994Z,100279.00
2023-02-01T17:10:34.924Z,100268.06
2023-02-01T17:13:03.114Z,100268.38
2023-02-01T17:15:35.614Z,100265.47
2023-02-01T17:18:03.376Z,100267.87
2023-02-01T17:20:34.679Z,100270.59
2023-02-01T17:23:01.384Z,100278.72
2023-02-01T17:25:30.311Z,100272.88
2023-02-01T17:27:56.881Z,100277.63
2023-02-01T17:30:23.472Z,100277.00
2023-02-01T17:32:50.218Z,100279.50
2023-02-01T17:35:22.298Z,100281.59
2023-02-01T17:37:49.890Z,100274.91
2023-02-01T17:40:16.963Z,100288.59
2023-02-01T17:42:43.902Z,100282.13
2023-02-01T17:45:28.824Z,100282.44
2023-02-01T17:47:55.405Z,100294.72
2023-02-01T17:50:22.829Z,100282.47
2023-02-01T17:52:49.399Z,100280.34
2023-02-01T17:55:22.582Z,100284.28
2023-02-01T17:57:49.870Z,100289.19
2023-02-01T18:00:18.280Z,100283.78
2023-02-01T18:02:45.347Z,100286.00
2023-02-01T18:05:23.431Z,100278.06
2023-02-01T18:07:50.208Z,100284.66
2023-02-01T18:10:17.214Z,100283.34
2023-02-01T18:12:43.984Z,100279.81
2023-02-01T18:15:19.996Z,100290.03
2023-02-01T18:17:46.872Z,100297.16
2023-02-01T18:20:18.729Z,100294.22
2023-02-01T18:22:48.661Z,100285.38
2023-02-01T18:25:28.519Z,100284.91
2023-02-01T18:27:57.377Z,100277.44
2023-02-01T18:30:35.275Z,100291.66
2023-02-01T18:33:02.056Z,100278.38
2023-02-01T18:35:30.705Z,100276.88
2023-02-01T18:37:58.151Z,100270.78
2023-02-01T18:40:27.909Z,100276.91
2023-02-01T18:42:54.788Z,100274.66
2023-02-01T18:45:28.797Z,100281.22
2023-02-01T18:47:59.801Z,100279.75
2023-02-01T18:50:29.318Z,100275.69
2023-02-01T18:52:57.589Z,100278.88
2023-02-01T18:55:25.458Z,100281.81
2023-02-01T18:57:52.394Z,100277.16
2023-02-01T19:00:21.040Z,100284.50
2023-02-01T19:02:48.479Z,100277.44
2023-02-01T19:05:15.916Z,100286.47
2023-02-01T19:07:44.140Z,100279.03
2023-02-01T19:10:18.698Z,100277.47
2023-02-01T19:12:47.736Z,100282.28
2023-02-01T19:15:15.777Z,100274.34
2023-02-01T19:17:49.310Z,100272.62
2023-02-01T19:20:19.040Z,100259.66
2023-02-01T19:22:47.325Z,100250.44
2023-02-01T19:25:17.621Z,100263.59
2023-02-01T19:27:44.287Z,100269.22
2023-02-01T19:30:12.867Z,100258.47
2023-02-01T19:32:40.859Z,100247.72
2023-02-01T19:35:10.218Z,100241.06
2023-02-01T19:37:36.868Z,100240.53
2023-02-01T19:40:03.746Z,100238.34
2023-02-01T19:42:30.490Z,100226.41
2023-02-01T19:44:57.147Z,100224.59
2023-02-01T19:47:23.796Z,100217.50
2023-02-01T19:49:50.415Z,100213.00
2023-02-01T19:52:17.576Z,100221.22
2023-02-01T19:54:44.193Z,100229.75
2023-02-01T19:57:10.794Z,100236.19
2023-02-01T19:59:37.410Z,100231.94
2023-02-01T20:02:03.275Z,100225.59
2023-02-01T20:04:30.050Z,100223.81
2023-02-01T20:06:56.814Z,100226.87
2023-02-01T20:09:25.927Z,100226.56
2023-02-01T20:11:55.655Z,100225.69
2023-02-01T20:14:25.915Z,100222.84
2023-02-01T20:16:52.723Z,100220.41
2023-02-01T20:19:19.702Z,100233.75
2023-02-01T20:21:46.810Z,100248.22
2023-02-01T20:24:17.885Z,100238.81
2023-02-01T20:26:46.195Z,100233.47
2023-02-01T20:29:15.972Z,100239.75
2023-02-01T20:31:42.623Z,100233.78
2023-02-01T20:34:10.676Z,100231.69
2023-02-01T20:36:37.477Z,100245.38
2023-02-01T20:39:04.630Z,100246.34
2023-02-01T20:41:31.561Z,100234.75
2023-02-01T20:43:58.285Z,100241.03
2023-02-01T20:46:25.014Z,100251.31
2023-02-01T20:48:51.937Z,100266.31
2023-02-01T20:51:20.672Z,100268.34
2023-02-01T20:53:48.914Z,100272.84
2023-02-01T20:56:15.836Z,100278.31
2023-02-01T20:58:43.363Z,100278.28
2023-02-01T21:01:10.884Z,100283.94
2023-02-01T21:03:38.532Z,100273.81
2023-02-01T21:06:06.536Z,100292.78
2023-02-01T21:08:33.689Z,100273.47
2023-02-01T21:11:04.087Z,100283.94
2023-02-01T21:13:34.775Z,100263.31
2023-02-01T21:16:01.369Z,100256.56
2023-02-01T21:18:28.331Z,100259.81
2023-02-01T21:20:55.199Z,100271.59
2023-02-01T21:23:21.791Z,100267.75
2023-02-01T21:25:54.767Z,100261.63
2023-02-01T21:28:21.380Z,100265.34
2023-02-01T21:30:47.985Z,100265.66
2023-02-01T21:33:14.670Z,100266.63
2023-02-01T21:35:41.965Z,100268.69
2023-02-01T21:38:09.985Z,100270.59
2023-02-01T21:40:36.965Z,100270.91
2023-02-01T21:43:03.711Z,100271.06
2023-02-01T21:45:30.298Z,100276.22
2023-02-01T21:47:57.420Z,100281.19
2023-02-01T21:50:24.022Z,100273.47
2023-02-01T21:52:51.053Z,100281.34
2023-02-01T21:55:17.627Z,100279.09
2023-02-01T21:57:44.223Z,100283.31
2023-02-01T22:00:13.406Z,100277.37
2023-02-01T22:02:40.628Z,100284.75
2023-02-01T22:05:07.751Z,100283.97
2023-02-01T22:07:36.178Z,100286.53
2023-02-01T22:10:03.771Z,100284.44
2023-02-01T22:12:30.377Z,100275.63
2023-02-01T22:14:56.965Z,100278.81
2023-02-01T22:17:23.541Z,100268.69
2023-02-01T22:19:50.167Z,100251.00
2023-02-01T22:22:16.889Z,100248.59
2023-02-01T22:24:43.552Z,100240.53
2023-02-01T22:27:14.377Z,100224.97
2023-02-01T22:29:42.459Z,100222.69
2023-02-01T22:32:09.418Z,100229.09
2023-02-01T22:34:35.958Z,100219.59
2023-02-01T22:37:03.118Z,100211.34
2023-02-01T22:39:29.726Z,100205.84
2023-02-01T22:41:56.399Z,100205.12
2023-02-01T22:44:23.807Z,100201.22
2023-02-01T22:46:52.771Z,100198.97
2023-02-01T22:49:19.813Z,100211.47
2023-02-01T22:51:46.427Z,100214.53
2023-02-01T22:54:17.500Z,100204.78
2023-02-01T22:56:44.101Z,100204.94
2023-02-01T22:59:12.604Z,100207.53
2023-02-01T23:01:39.168Z,100205.75
2023-02-01T23:04:09.815Z,100219.56
2023-02-01T23:06:36.464Z,100211.09
2023-02-01T23:09:13.806Z,100207.69
2023-02-01T23:11:40.506Z,100208.22
2023-02-01T23:14:07.483Z,100196.16
2023-02-01T23:16:34.480Z,100182.28
2023-02-01T23:19:01.403Z,100183.34
2023-02-01T23:21:28.375Z,100191.69
2023-02-01T23:23:57.714Z,100191.16
2023-02-01T23:26:26.594Z,100199.53
2023-02-01T23:28:55.260Z,100213.00
2023-02-01T23:31:24.374Z,100214.53
2023-02-01T23:33:55.011Z,100212.66
2023-02-01T23:36:22.036Z,100213.53
2023-02-01T23:38:49.729Z,100205.19
2023-02-01T23:41:18.483Z,100189.84
2023-02-01T23:43:57.802Z,100180.03
2023-02-01T23:46:26.664Z,100168.66
2023-02-01T23:48:53.458Z,100181.34
2023-02-01T23:51:21.090Z,100184.75
2023-02-01T23:53:47.793Z,100190.88
2023-02-01T23:56:19.844Z,100179.13
2023-02-01T23:58:46.695Z,100175.59
